createdAt,value
2022-08-17T00:02:31.514Z,4.05
2022-08-17T00:05:06.015Z,4.50
2022-08-17T00:08:08.053Z,4.03
2022-08-17T00:10:47.341Z,4.07
2022-08-17T00:13:43.240Z,3.50
2022-08-17T00:16:56.375Z,3.85
2022-08-17T00:19:27.103Z,4.32
2022-08-17T00:22:35.207Z,4.28
2022-08-17T00:24:49.701Z,3.70
2022-08-17T00:27:18.851Z,3.63
2022-08-17T00:29:52.950Z,3.85
2022-08-17T00:33:11.941Z,3.67
2022-08-17T00:35:12.403Z,3.67
2022-08-17T00:37:43.519Z,3.72
2022-08-17T00:40:21.728Z,4.20
2022-08-17T00:42:54.303Z,3.90
2022-08-17T00:45:23.938Z,3.75
2022-08-17T00:47:53.046Z,3.67
2022-08-17T00:50:21.240Z,3.88
2022-08-17T00:52:55.268Z,3.50
2022-08-17T00:55:25.723Z,3.83
2022-08-17T00:57:59.711Z,3.60
2022-08-17T01:00:34.987Z,3.67
2022-08-17T01:03:09.039Z,3.67
2022-08-17T01:05:42.136Z,3.80
2022-08-17T01:08:16.064Z,3.80
2022-08-17T01:10:59.735Z,4.40
2022-08-17T01:13:42.930Z,3.53
2022-08-17T01:16:23.922Z,4.30
2022-08-17T01:19:06.939Z,4.03
2022-08-17T01:22:08.068Z,3.22
2022-08-17T01:24:56.510Z,3.70
2022-08-17T01:27:30.699Z,3.63
2022-08-17T01:30:56.825Z,3.90
2022-08-17T01:33:02.520Z,4.20
2022-08-17T01:35:34.425Z,3.10
2022-08-17T01:38:03.789Z,4.30
2022-08-17T01:40:38.272Z,3.67
2022-08-17T01:43:12.995Z,3.67
2022-08-17T01:46:03.480Z,4.22
2022-08-17T01:48:34.588Z,3.78
2022-08-17T01:51:35.745Z,4.07
2022-08-17T01:54:13.277Z,3.40
2022-08-17T01:56:47.487Z,3.58
2022-08-17T02:07:21.189Z,3.67
2022-08-17T02:09:56.987Z,3.90
2022-08-17T02:12:38.768Z,4.05
2022-08-17T02:20:13.867Z,3.70
2022-08-17T02:22:47.432Z,3.90
2022-08-17T02:25:21.171Z,3.55
2022-08-17T02:27:58.105Z,3.40
2022-08-17T02:31:01.301Z,3.90
2022-08-17T02:33:42.428Z,3.80
2022-08-17T02:36:14.066Z,3.63
2022-08-17T02:38:44.272Z,3.42
2022-08-17T02:41:13.260Z,3.47
2022-08-17T02:43:48.593Z,3.60
2022-08-17T02:46:20.308Z,3.45
2022-08-17T02:54:02.089Z,3.50
2022-08-17T02:56:46.509Z,4.00
2022-08-17T02:59:20.658Z,3.88
2022-08-17T03:01:51.220Z,4.43
2022-08-17T03:04:20.103Z,3.70
2022-08-17T03:06:57.245Z,3.50
2022-08-17T03:09:26.734Z,3.40
2022-08-17T03:11:56.825Z,3.55
2022-08-17T03:14:33.047Z,3.88
2022-08-17T03:17:04.392Z,4.03
2022-08-17T03:19:33.679Z,3.75
2022-08-17T03:22:36.022Z,3.50
2022-08-17T03:32:15.961Z,3.78
2022-08-17T03:34:44.847Z,4.00
2022-08-17T03:37:14.175Z,3.63
2022-08-17T03:39:43.199Z,3.78
2022-08-17T03:52:51.925Z,3.45
2022-08-17T03:55:46.275Z,4.13
2022-08-17T03:59:51.866Z,3.58
2022-08-17T04:02:32.620Z,3.20
2022-08-17T04:05:02.582Z,3.55
2022-08-17T04:07:35.276Z,4.20
2022-08-17T04:15:14.003Z,3.40
2022-08-17T04:17:46.397Z,3.80
2022-08-17T04:20:18.150Z,3.80
2022-08-17T04:23:06.536Z,3.10
2022-08-17T04:25:49.978Z,3.80
2022-08-17T04:28:20.465Z,3.40
2022-08-17T04:30:48.627Z,3.67
2022-08-17T04:33:34.053Z,3.70
2022-08-17T04:38:45.013Z,3.05
2022-08-17T04:41:35.058Z,2.92
2022-08-17T04:44:04.981Z,3.20
2022-08-17T04:46:36.577Z,3.65
2022-08-17T04:49:09.422Z,3.20
2022-08-17T04:51:54.585Z,3.70
2022-08-17T04:54:31.113Z,3.72
2022-08-17T04:57:00.942Z,4.10
2022-08-17T04:59:30.298Z,3.25
2022-08-17T05:01:59.669Z,3.47
2022-08-17T05:04:33.845Z,3.22
2022-08-17T05:07:05.196Z,3.75
2022-08-17T05:09:35.321Z,3.50
2022-08-17T05:12:04.178Z,3.85
2022-08-17T05:14:40.150Z,3.92
2022-08-17T05:17:11.029Z,3.45
2022-08-17T05:19:42.359Z,3.50
2022-08-17T05:22:18.451Z,3.45
2022-08-17T05:24:53.851Z,3.38
2022-08-17T05:27:32.236Z,3.78
2022-08-17T05:30:04.153Z,3.38
2022-08-17T05:32:37.952Z,4.00
2022-08-17T05:35:47.211Z,3.30
2022-08-17T05:38:18.843Z,3.85
2022-08-17T05:40:47.510Z,3.70
2022-08-17T05:43:27.049Z,3.80
2022-08-17T05:46:27.989Z,3.28
2022-08-17T05:49:23.385Z,4.10
2022-08-17T05:52:21.420Z,3.35
2022-08-17T05:55:31.758Z,3.50
2022-08-17T05:58:22.253Z,3.63
2022-08-17T06:01:04.177Z,3.58
2022-08-17T06:03:48.502Z,3.53
2022-08-17T06:06:42.760Z,3.20
2022-08-17T06:09:39.872Z,3.77
2022-08-17T06:12:30.034Z,4.13
2022-08-17T06:15:34.863Z,3.63
2022-08-17T06:18:08.466Z,3.28
2022-08-17T06:20:52.350Z,3.40
2022-08-17T06:23:45.615Z,4.32
2022-08-17T06:26:22.058Z,3.20
2022-08-17T06:29:04.768Z,3.53
2022-08-17T06:31:38.966Z,3.58
2022-08-17T06:34:12.337Z,3.33
2022-08-17T06:37:26.229Z,3.13
2022-08-17T06:40:39.933Z,3.08
2022-08-17T06:43:47.453Z,3.45
2022-08-17T06:46:25.123Z,7.25
2022-08-17T06:49:14.459Z,6.95
2022-08-17T06:52:45.356Z,3.63
2022-08-17T06:55:22.143Z,4.47
2022-08-17T06:57:59.786Z,3.60
2022-08-17T07:00:36.011Z,3.25
2022-08-17T07:03:38.147Z,3.80
2022-08-17T07:06:15.924Z,3.95
2022-08-17T07:09:05.287Z,4.32
2022-08-17T07:12:05.399Z,3.70
2022-08-17T07:14:53.180Z,2.95
2022-08-17T07:17:47.469Z,3.60
2022-08-17T07:20:23.460Z,2.95
2022-08-17T07:23:06.112Z,3.95
2022-08-17T07:25:35.571Z,3.05
2022-08-17T07:28:08.002Z,2.65
2022-08-17T07:30:45.866Z,3.05
2022-08-17T07:33:25.933Z,2.40
2022-08-17T07:35:58.670Z,2.90
2022-08-17T07:38:33.645Z,2.63
2022-08-17T07:41:53.272Z,2.45
2022-08-17T07:44:55.170Z,9.07
2022-08-17T07:47:45.418Z,4.43
2022-08-17T07:50:30.020Z,4.32
2022-08-17T07:53:20.078Z,4.55
2022-08-17T07:55:52.227Z,3.80
2022-08-17T07:58:25.161Z,3.65
2022-08-17T08:01:11.875Z,2.92
2022-08-17T08:03:52.426Z,2.75
2022-08-17T08:06:25.515Z,2.53
2022-08-17T08:09:01.368Z,2.60
2022-08-17T08:11:41.218Z,3.05
2022-08-17T08:14:34.210Z,3.53
2022-08-17T08:17:07.006Z,3.38
2022-08-17T08:19:40.265Z,2.92
2022-08-17T08:22:24.966Z,3.00
2022-08-17T08:25:00.027Z,3.30
2022-08-17T08:28:02.249Z,3.22
2022-08-17T08:30:38.648Z,3.38
2022-08-17T08:33:15.213Z,3.40
2022-08-17T08:36:03.384Z,3.05
2022-08-17T08:38:49.154Z,2.70
2022-08-17T08:41:35.938Z,3.42
2022-08-17T08:44:59.899Z,3.08
2022-08-17T08:47:54.661Z,3.00
2022-08-17T08:51:07.260Z,3.08
2022-08-17T08:54:34.912Z,3.10
2022-08-17T08:57:34.836Z,3.40
2022-08-17T09:00:25.775Z,2.53
2022-08-17T09:03:11.482Z,2.50
2022-08-17T09:10:10.823Z,3.07
2022-08-17T09:12:42.541Z,2.60
2022-08-17T09:15:31.471Z,2.08
2022-08-17T09:19:03.527Z,2.83
2022-08-17T09:25:42.714Z,2.28
2022-08-17T09:28:21.946Z,2.40
2022-08-17T09:30:57.294Z,2.83
2022-08-17T09:33:28.290Z,2.42
2022-08-17T09:36:04.539Z,2.60
2022-08-17T09:38:59.420Z,2.70
2022-08-17T09:41:49.324Z,2.10
2022-08-17T09:44:36.708Z,2.30
2022-08-17T09:47:14.673Z,2.60
2022-08-17T09:49:56.179Z,2.50
2022-08-17T09:52:30.083Z,2.38
2022-08-17T09:55:04.655Z,1.80
2022-08-17T09:58:32.878Z,1.50
2022-08-17T10:06:30.659Z,1.85
2022-08-17T10:09:51.406Z,1.88
2022-08-17T10:12:32.219Z,2.00
2022-08-17T10:15:42.497Z,2.22
2022-08-17T10:18:31.954Z,1.60
2022-08-17T10:21:32.869Z,2.07
2022-08-17T10:25:23.562Z,2.20
2022-08-17T10:27:58.720Z,2.10
2022-08-17T10:30:32.845Z,2.17
2022-08-17T10:33:16.344Z,1.80
2022-08-17T10:39:00.436Z,1.80
2022-08-17T10:41:53.029Z,2.33
2022-08-17T10:44:49.617Z,2.63
2022-08-17T10:47:55.552Z,2.22
2022-08-17T10:50:50.663Z,2.38
2022-08-17T10:53:31.843Z,2.38
2022-08-17T10:56:13.880Z,2.20
2022-08-17T10:58:58.043Z,2.58
2022-08-17T11:01:38.168Z,2.65
2022-08-17T11:04:20.538Z,2.42
2022-08-17T11:07:12.628Z,2.53
2022-08-17T11:10:07.304Z,2.10
2022-08-17T11:13:08.669Z,2.25
2022-08-17T11:16:11.485Z,2.08
2022-08-17T11:19:24.227Z,2.10
2022-08-17T11:22:31.308Z,2.08
2022-08-17T11:25:20.894Z,2.38
2022-08-17T11:28:09.080Z,2.17
2022-08-17T11:30:59.377Z,2.35
2022-08-17T11:33:36.593Z,2.08
2022-08-17T11:36:18.101Z,2.55
2022-08-17T11:39:06.099Z,2.40
2022-08-17T11:42:01.108Z,1.85
2022-08-17T11:44:45.427Z,2.40
2022-08-17T11:48:26.001Z,2.33
2022-08-17T11:51:28.805Z,2.40
2022-08-17T11:54:31.586Z,2.00
2022-08-17T11:56:59.157Z,2.38
2022-08-17T11:59:33.900Z,2.95
2022-08-17T12:02:38.946Z,2.25
2022-08-17T12:05:28.764Z,1.65
2022-08-17T12:08:15.813Z,2.13
2022-08-17T12:10:59.002Z,2.50
2022-08-17T12:13:35.196Z,2.17
2022-08-17T12:16:16.235Z,2.20
2022-08-17T12:19:04.968Z,2.08
2022-08-17T12:21:50.887Z,2.83
2022-08-17T12:24:40.037Z,2.83
2022-08-17T12:27:12.224Z,2.13
2022-08-17T12:29:45.443Z,2.30
2022-08-17T12:32:23.077Z,2.17
2022-08-17T12:34:52.376Z,2.28
2022-08-17T12:37:25.058Z,2.30
2022-08-17T12:39:58.177Z,3.13
2022-08-17T12:42:38.222Z,2.72
2022-08-17T12:45:33.914Z,2.22
2022-08-17T12:48:08.036Z,2.67
2022-08-17T12:50:46.099Z,1.98
2022-08-17T12:53:20.742Z,2.55
2022-08-17T12:55:55.245Z,2.15
2022-08-17T12:58:28.949Z,2.42
2022-08-17T13:01:15.163Z,2.20
2022-08-17T13:03:49.446Z,2.03
2022-08-17T13:06:34.775Z,1.40
2022-08-17T13:09:36.082Z,1.60
2022-08-17T13:12:08.972Z,2.33
2022-08-17T13:14:37.282Z,2.70
2022-08-17T13:17:11.291Z,2.50
2022-08-17T13:19:49.827Z,2.45
2022-08-17T13:22:26.000Z,2.13
2022-08-17T13:25:01.187Z,2.47
2022-08-17T13:27:32.062Z,3.40
2022-08-17T13:30:06.610Z,2.40
2022-08-17T13:32:48.295Z,5.57
2022-08-17T13:35:47.122Z,3.55
2022-08-17T13:38:47.893Z,2.67
2022-08-17T13:41:36.230Z,2.75
2022-08-17T13:44:47.473Z,3.30
2022-08-17T13:47:20.506Z,2.92
2022-08-17T13:49:49.596Z,1.98
2022-08-17T13:53:23.112Z,2.10
2022-08-17T13:56:37.223Z,1.95
2022-08-17T13:59:53.275Z,2.20
2022-08-17T14:02:18.387Z,1.90
2022-08-17T14:04:48.795Z,2.05
2022-08-17T14:07:19.486Z,2.10
2022-08-17T14:10:00.730Z,2.05
2022-08-17T14:12:32.401Z,1.67
2022-08-17T14:25:47.025Z,2.22
2022-08-17T14:28:15.163Z,1.70
2022-08-17T14:30:43.371Z,2.13
2022-08-17T14:33:14.506Z,1.92
2022-08-17T14:35:42.764Z,2.20
2022-08-17T14:38:11.569Z,1.90
2022-08-17T14:40:43.979Z,1.80
2022-08-17T14:43:12.199Z,2.05
2022-08-17T14:45:41.294Z,2.20
2022-08-17T14:48:17.965Z,1.70
2022-08-17T14:50:46.557Z,1.65
2022-08-17T14:53:16.619Z,1.90
2022-08-17T14:55:46.902Z,2.28
2022-08-17T14:58:15.372Z,1.67
2022-08-17T15:00:51.592Z,1.60
2022-08-17T15:03:20.049Z,1.42
2022-08-17T15:05:54.507Z,1.70
2022-08-17T15:08:32.673Z,1.95
2022-08-17T15:11:03.486Z,1.90
2022-08-17T15:13:32.076Z,1.98
2022-08-17T15:16:01.330Z,1.98
2022-08-17T15:18:30.892Z,2.15
2022-08-17T15:20:58.744Z,2.20
2022-08-17T15:23:27.432Z,1.88
2022-08-17T15:25:55.387Z,1.65
2022-08-17T15:28:24.194Z,1.90
2022-08-17T15:30:53.638Z,2.05
2022-08-17T15:33:35.177Z,1.98
2022-08-17T15:36:10.862Z,1.88
2022-08-17T15:38:39.851Z,1.70
2022-08-17T15:41:13.771Z,1.90
2022-08-17T15:46:17.634Z,2.25
2022-08-17T15:48:49.174Z,1.85
2022-08-17T15:51:48.944Z,1.55
2022-08-17T15:54:22.690Z,2.20
2022-08-17T15:56:52.619Z,1.85
2022-08-17T15:59:20.533Z,1.83
2022-08-17T16:03:01.656Z,2.00
2022-08-17T16:04:44.374Z,2.03
2022-08-17T16:07:26.463Z,1.85
2022-08-17T16:09:59.495Z,1.50
2022-08-17T16:18:05.200Z,1.90
2022-08-17T16:20:36.718Z,1.92
2022-08-17T16:23:05.732Z,1.80
2022-08-17T16:25:38.433Z,1.80
2022-08-17T16:28:23.329Z,1.73
2022-08-17T16:31:08.182Z,1.70
2022-08-17T16:33:42.263Z,1.88
2022-08-17T16:41:45.488Z,1.85
2022-08-17T16:44:15.962Z,2.45
2022-08-17T16:46:46.484Z,1.88
2022-08-17T16:49:36.157Z,1.88
2022-08-17T16:52:04.342Z,1.98
2022-08-17T16:54:44.374Z,2.45
2022-08-17T16:57:17.694Z,1.90
2022-08-17T16:59:52.699Z,2.17
2022-08-17T17:03:06.466Z,2.38
2022-08-17T17:06:25.608Z,1.92
2022-08-17T17:09:08.095Z,2.25
2022-08-17T17:11:48.258Z,2.35
2022-08-17T17:14:28.362Z,2.10
2022-08-17T17:17:33.950Z,2.33
2022-08-17T17:20:39.317Z,2.10
2022-08-17T17:23:49.379Z,1.85
2022-08-17T17:26:27.276Z,1.92
2022-08-17T17:29:23.992Z,1.80
2022-08-17T17:32:03.328Z,1.90
2022-08-17T17:34:42.289Z,1.92
2022-08-17T17:37:43.833Z,1.83
2022-08-17T17:40:23.524Z,2.13
2022-08-17T17:43:09.295Z,1.98
2022-08-17T17:45:57.086Z,5.68
2022-08-17T17:48:30.183Z,2.17
2022-08-17T17:52:07.850Z,2.00
2022-08-17T17:54:18.360Z,1.80
2022-08-17T17:57:28.010Z,2.08
2022-08-17T18:00:24.719Z,2.05
2022-08-17T18:03:02.580Z,2.13
2022-08-17T18:05:57.756Z,1.92
2022-08-17T18:08:34.856Z,1.65
2022-08-17T18:11:24.559Z,1.98
2022-08-17T18:14:32.114Z,2.00
2022-08-17T18:17:36.354Z,2.05
2022-08-17T18:20:07.229Z,2.17
2022-08-17T18:22:37.580Z,2.20
2022-08-17T18:25:39.998Z,1.70
2022-08-17T18:28:37.036Z,1.90
2022-08-17T18:31:21.911Z,2.22
2022-08-17T18:34:45.747Z,1.88
2022-08-17T18:46:36.230Z,2.00
2022-08-17T18:50:42.476Z,2.45
2022-08-17T18:53:35.157Z,2.83
2022-08-17T18:56:30.451Z,2.05
2022-08-17T18:59:40.016Z,2.65
2022-08-17T19:05:27.252Z,2.33
2022-08-17T19:09:06.841Z,2.60
2022-08-17T19:11:36.618Z,2.40
2022-08-17T19:14:10.724Z,2.42
2022-08-17T19:16:57.483Z,2.45
2022-08-17T19:20:02.634Z,3.60
2022-08-17T19:22:50.330Z,2.75
2022-08-17T19:25:25.247Z,2.70
2022-08-17T19:28:44.646Z,2.50
2022-08-17T19:31:22.221Z,2.90
2022-08-17T19:33:51.136Z,3.15
2022-08-17T19:41:26.424Z,2.60
2022-08-17T19:44:22.572Z,3.00
2022-08-17T19:47:53.808Z,2.90
2022-08-17T19:50:42.564Z,2.42
2022-08-17T19:54:04.730Z,3.30
2022-08-17T20:06:13.382Z,2.67
2022-08-17T20:10:19.473Z,2.45
2022-08-17T20:12:57.456Z,2.90
2022-08-17T20:15:31.195Z,2.85
2022-08-17T20:18:33.660Z,3.05
2022-08-17T20:21:10.149Z,2.70
2022-08-17T20:23:54.451Z,2.50
2022-08-17T20:26:55.490Z,2.80
2022-08-17T20:30:21.810Z,3.10
2022-08-17T20:32:52.465Z,2.70
2022-08-17T20:39:57.671Z,3.20
2022-08-17T20:42:27.297Z,2.83
2022-08-17T20:45:22.026Z,2.88
2022-08-17T20:48:19.003Z,2.85
2022-08-17T20:50:57.250Z,3.10
2022-08-17T20:53:48.233Z,2.92
2022-08-17T20:56:50.430Z,2.97
2022-08-17T20:59:30.489Z,2.88
2022-08-17T21:07:54.215Z,3.30
2022-08-17T21:10:27.062Z,2.67
2022-08-17T21:13:04.932Z,2.63
2022-08-17T21:15:52.496Z,2.83
2022-08-17T21:18:47.635Z,3.58
2022-08-17T21:23:48.036Z,2.63
2022-08-17T21:26:39.289Z,2.58
2022-08-17T21:39:40.141Z,3.35
2022-08-17T21:42:12.490Z,2.80
2022-08-17T21:46:17.271Z,2.88
2022-08-17T21:49:20.058Z,2.90
2022-08-17T21:51:54.499Z,2.83
2022-08-17T21:55:03.440Z,2.60
2022-08-17T21:57:41.463Z,2.85
2022-08-17T22:01:19.220Z,2.80
2022-08-17T22:04:13.505Z,3.22
2022-08-17T22:06:52.300Z,2.60
2022-08-17T22:09:33.201Z,2.95
2022-08-17T22:12:23.088Z,2.70
2022-08-17T22:16:29.778Z,2.90
2022-08-17T22:19:00.632Z,2.58
2022-08-17T22:21:30.024Z,2.50
2022-08-17T22:24:18.849Z,3.05
2022-08-17T22:27:20.859Z,2.95
2022-08-17T22:30:35.232Z,3.00
2022-08-17T22:33:45.380Z,3.40
2022-08-17T22:36:46.710Z,3.65
2022-08-17T22:39:15.433Z,2.67
2022-08-17T22:41:52.725Z,3.05
2022-08-17T22:44:23.429Z,2.88
2022-08-17T22:47:23.795Z,2.80
2022-08-17T22:50:15.022Z,2.60
2022-08-17T22:53:31.406Z,2.97
2022-08-17T22:56:23.759Z,3.20
2022-08-17T23:03:28.593Z,2.90
2022-08-17T23:06:29.310Z,3.08
2022-08-17T23:09:05.934Z,2.45
2022-08-17T23:17:37.347Z,2.83
2022-08-17T23:20:09.650Z,1.95
2022-08-17T23:22:52.527Z,2.70
2022-08-17T23:30:49.303Z,3.30
2022-08-17T23:33:50.524Z,2.95
2022-08-17T23:36:21.312Z,2.85
2022-08-17T23:38:50.183Z,2.45
2022-08-17T23:41:20.755Z,2.90
